sensor_id;sensor_type;location;lat;lon;timestamp;temperature;humidity
31003;DHT22;23051;-6.372;106.786;2023-06-22T00:01:26;27.20;89.00
31003;DHT22;23051;-6.372;106.786;2023-06-22T00:03:28;27.20;88.90
31003;DHT22;23051;-6.372;106.786;2023-06-22T00:05:29;27.20;88.80
31003;DHT22;23051;-6.372;106.786;2023-06-22T00:07:31;27.20;88.80
31003;DHT22;23051;-6.372;106.786;2023-06-22T00:09:33;27.20;88.80
31003;DHT22;23051;-6.372;106.786;2023-06-22T00:11:37;27.20;88.80
31003;DHT22;23051;-6.372;106.786;2023-06-22T00:13:39;27.30;88.90
31003;DHT22;23051;-6.372;106.786;2023-06-22T00:15:44;27.30;88.90
31003;DHT22;23051;-6.372;106.786;2023-06-22T00:17:45;27.30;88.90
31003;DHT22;23051;-6.372;106.786;2023-06-22T00:19:52;27.30;88.80
31003;DHT22;23051;-6.372;106.786;2023-06-22T00:21:57;27.30;88.80
31003;DHT22;23051;-6.372;106.786;2023-06-22T00:24:01;27.30;88.80
31003;DHT22;23051;-6.372;106.786;2023-06-22T00:26:05;27.30;88.80
31003;DHT22;23051;-6.372;106.786;2023-06-22T00:28:09;27.40;88.80
31003;DHT22;23051;-6.372;106.786;2023-06-22T00:30:11;27.40;88.80
31003;DHT22;23051;-6.372;106.786;2023-06-22T00:32:13;27.40;88.70
31003;DHT22;23051;-6.372;106.786;2023-06-22T00:36:18;27.40;88.60
31003;DHT22;23051;-6.372;106.786;2023-06-22T00:38:20;27.40;88.60
31003;DHT22;23051;-6.372;106.786;2023-06-22T00:40:22;27.40;88.60
31003;DHT22;23051;-6.372;106.786;2023-06-22T00:42:26;27.50;88.60
31003;DHT22;23051;-6.372;106.786;2023-06-22T00:44:33;27.50;88.50
31003;DHT22;23051;-6.372;106.786;2023-06-22T00:46:34;27.60;88.50
31003;DHT22;23051;-6.372;106.786;2023-06-22T00:48:36;27.60;88.40
31003;DHT22;23051;-6.372;106.786;2023-06-22T00:50:38;27.50;88.40
31003;DHT22;23051;-6.372;106.786;2023-06-22T00:52:43;27.60;88.40
31003;DHT22;23051;-6.372;106.786;2023-06-22T00:54:45;27.60;88.30
31003;DHT22;23051;-6.372;106.786;2023-06-22T00:56:47;27.60;88.30
31003;DHT22;23051;-6.372;106.786;2023-06-22T00:58:50;27.60;88.20
31003;DHT22;23051;-6.372;106.786;2023-06-22T01:00:53;27.70;88.20
31003;DHT22;23051;-6.372;106.786;2023-06-22T01:03:01;27.70;88.20
31003;DHT22;23051;-6.372;106.786;2023-06-22T01:05:03;27.70;88.20
31003;DHT22;23051;-6.372;106.786;2023-06-22T01:09:15;27.80;88.20
31003;DHT22;23051;-6.372;106.786;2023-06-22T01:11:28;27.80;88.10
31003;DHT22;23051;-6.372;106.786;2023-06-22T01:13:42;27.80;88.00
31003;DHT22;23051;-6.372;106.786;2023-06-22T01:15:53;27.90;88.10
31003;DHT22;23051;-6.372;106.786;2023-06-22T01:17:58;27.90;88.00
31003;DHT22;23051;-6.372;106.786;2023-06-22T01:20:01;27.90;88.00
31003;DHT22;23051;-6.372;106.786;2023-06-22T01:22:07;27.90;87.90
31003;DHT22;23051;-6.372;106.786;2023-06-22T01:30:32;28.10;87.80
31003;DHT22;23051;-6.372;106.786;2023-06-22T01:32:41;28.10;87.70
31003;DHT22;23051;-6.372;106.786;2023-06-22T01:34:42;28.10;87.60
31003;DHT22;23051;-6.372;106.786;2023-06-22T01:36:44;28.20;87.60
31003;DHT22;23051;-6.372;106.786;2023-06-22T01:38:49;28.20;87.50
31003;DHT22;23051;-6.372;106.786;2023-06-22T01:40:51;28.20;87.50
31003;DHT22;23051;-6.372;106.786;2023-06-22T01:42:54;28.30;87.50
31003;DHT22;23051;-6.372;106.786;2023-06-22T01:45:01;28.30;87.40
31003;DHT22;23051;-6.372;106.786;2023-06-22T01:47:03;28.30;87.30
31003;DHT22;23051;-6.372;106.786;2023-06-22T01:49:06;28.40;87.30
31003;DHT22;23051;-6.372;106.786;2023-06-22T01:51:11;28.40;87.20
31003;DHT22;23051;-6.372;106.786;2023-06-22T01:53:13;28.50;87.10
31003;DHT22;23051;-6.372;106.786;2023-06-22T01:55:23;28.50;87.10
31003;DHT22;23051;-6.372;106.786;2023-06-22T01:57:27;28.50;87.00
31003;DHT22;23051;-6.372;106.786;2023-06-22T02:01:51;28.70;86.90
31003;DHT22;23051;-6.372;106.786;2023-06-22T02:04:06;28.70;86.80
31003;DHT22;23051;-6.372;106.786;2023-06-22T02:06:21;28.70;86.90
31003;DHT22;23051;-6.372;106.786;2023-06-22T02:08:29;28.70;86.80
31003;DHT22;23051;-6.372;106.786;2023-06-22T02:10:32;28.80;86.70
31003;DHT22;23051;-6.372;106.786;2023-06-22T02:12:36;28.80;86.60
31003;DHT22;23051;-6.372;106.786;2023-06-22T02:14:39;28.80;86.50
31003;DHT22;23051;-6.372;106.786;2023-06-22T02:16:48;28.80;86.50
31003;DHT22;23051;-6.372;106.786;2023-06-22T02:18:50;28.80;86.50
31003;DHT22;23051;-6.372;106.786;2023-06-22T02:20:52;28.90;86.50
31003;DHT22;23051;-6.372;106.786;2023-06-22T02:22:54;28.90;86.40
31003;DHT22;23051;-6.372;106.786;2023-06-22T02:24:56;28.90;86.50
31003;DHT22;23051;-6.372;106.786;2023-06-22T02:26:59;29.00;86.50
31003;DHT22;23051;-6.372;106.786;2023-06-22T02:29:11;29.00;86.50
31003;DHT22;23051;-6.372;106.786;2023-06-22T02:31:16;29.00;86.30
31003;DHT22;23051;-6.372;106.786;2023-06-22T02:33:17;29.10;86.30
31003;DHT22;23051;-6.372;106.786;2023-06-22T02:35:19;29.10;86.20
31003;DHT22;23051;-6.372;106.786;2023-06-22T02:37:23;29.10;86.10
31003;DHT22;23051;-6.372;106.786;2023-06-22T02:39:30;29.20;86.10
31003;DHT22;23051;-6.372;106.786;2023-06-22T02:41:32;29.20;85.90
31003;DHT22;23051;-6.372;106.786;2023-06-22T02:43:33;29.30;85.80
31003;DHT22;23051;-6.372;106.786;2023-06-22T02:45:46;29.40;85.80
31003;DHT22;23051;-6.372;106.786;2023-06-22T02:47:53;29.40;85.60
31003;DHT22;23051;-6.372;106.786;2023-06-22T02:49:55;29.40;85.60
31003;DHT22;23051;-6.372;106.786;2023-06-22T02:51:57;29.40;85.50
31003;DHT22;23051;-6.372;106.786;2023-06-22T02:53:59;29.50;85.40
31003;DHT22;23051;-6.372;106.786;2023-06-22T02:56:02;29.60;85.40
31003;DHT22;23051;-6.372;106.786;2023-06-22T02:58:07;29.60;85.30
31003;DHT22;23051;-6.372;106.786;2023-06-22T03:00:10;29.60;85.30
31003;DHT22;23051;-6.372;106.786;2023-06-22T03:02:17;29.60;85.30
31003;DHT22;23051;-6.372;106.786;2023-06-22T03:04:22;29.70;85.30
31003;DHT22;23051;-6.372;106.786;2023-06-22T03:06:26;29.70;85.10
31003;DHT22;23051;-6.372;106.786;2023-06-22T03:08:29;29.90;85.00
31003;DHT22;23051;-6.372;106.786;2023-06-22T03:10:30;30.00;84.60
31003;DHT22;23051;-6.372;106.786;2023-06-22T03:12:34;30.20;84.60
31003;DHT22;23051;-6.372;106.786;2023-06-22T03:14:39;30.30;84.30
31003;DHT22;23051;-6.372;106.786;2023-06-22T03:16:40;30.40;84.00
31003;DHT22;23051;-6.372;106.786;2023-06-22T03:18:45;30.50;83.80
31003;DHT22;23051;-6.372;106.786;2023-06-22T03:20:47;30.60;83.50
31003;DHT22;23051;-6.372;106.786;2023-06-22T03:22:48;30.80;83.50
31003;DHT22;23051;-6.372;106.786;2023-06-22T03:24:50;30.80;83.20
31003;DHT22;23051;-6.372;106.786;2023-06-22T03:26:52;30.90;83.10
31003;DHT22;23051;-6.372;106.786;2023-06-22T03:28:53;31.00;82.90
31003;DHT22;23051;-6.372;106.786;2023-06-22T03:30:57;31.10;82.80
31003;DHT22;23051;-6.372;106.786;2023-06-22T03:32:59;31.20;82.60
31003;DHT22;23051;-6.372;106.786;2023-06-22T03:35:00;31.30;82.50
31003;DHT22;23051;-6.372;106.786;2023-06-22T03:37:07;31.30;82.50
31003;DHT22;23051;-6.372;106.786;2023-06-22T03:39:08;31.40;82.40
31003;DHT22;23051;-6.372;106.786;2023-06-22T03:41:10;31.50;82.20
31003;DHT22;23051;-6.372;106.786;2023-06-22T03:43:14;31.60;82.00
31003;DHT22;23051;-6.372;106.786;2023-06-22T03:45:16;31.60;81.80
31003;DHT22;23051;-6.372;106.786;2023-06-22T03:47:18;31.70;81.70
31003;DHT22;23051;-6.372;106.786;2023-06-22T03:49:25;31.70;81.60
31003;DHT22;23051;-6.372;106.786;2023-06-22T03:51:26;31.80;81.60
31003;DHT22;23051;-6.372;106.786;2023-06-22T03:53:30;31.90;81.40
31003;DHT22;23051;-6.372;106.786;2023-06-22T03:55:33;32.00;81.30
31003;DHT22;23051;-6.372;106.786;2023-06-22T03:57:36;32.10;81.20
31003;DHT22;23051;-6.372;106.786;2023-06-22T03:59:38;32.20;81.00
31003;DHT22;23051;-6.372;106.786;2023-06-22T04:01:40;32.20;80.90
31003;DHT22;23051;-6.372;106.786;2023-06-22T04:03:49;32.30;80.90
31003;DHT22;23051;-6.372;106.786;2023-06-22T04:05:50;32.30;80.70
31003;DHT22;23051;-6.372;106.786;2023-06-22T04:07:54;32.40;80.60
31003;DHT22;23051;-6.372;106.786;2023-06-22T04:09:55;32.50;80.40
31003;DHT22;23051;-6.372;106.786;2023-06-22T04:12:01;32.50;80.20
31003;DHT22;23051;-6.372;106.786;2023-06-22T04:14:08;32.60;80.10
31003;DHT22;23051;-6.372;106.786;2023-06-22T04:16:10;32.70;80.00
31003;DHT22;23051;-6.372;106.786;2023-06-22T04:18:12;32.80;79.90
31003;DHT22;23051;-6.372;106.786;2023-06-22T04:20:14;32.80;79.80
31003;DHT22;23051;-6.372;106.786;2023-06-22T04:22:16;32.80;79.70
31003;DHT22;23051;-6.372;106.786;2023-06-22T04:24:18;32.90;79.70
31003;DHT22;23051;-6.372;106.786;2023-06-22T04:26:19;33.00;79.60
31003;DHT22;23051;-6.372;106.786;2023-06-22T04:28:22;33.10;79.50
31003;DHT22;23051;-6.372;106.786;2023-06-22T04:30:26;33.10;79.20
31003;DHT22;23051;-6.372;106.786;2023-06-22T04:32:28;33.20;79.10
31003;DHT22;23051;-6.372;106.786;2023-06-22T04:34:29;33.20;79.00
31003;DHT22;23051;-6.372;106.786;2023-06-22T04:36:38;33.30;78.90
31003;DHT22;23051;-6.372;106.786;2023-06-22T04:38:48;33.40;78.70
31003;DHT22;23051;-6.372;106.786;2023-06-22T04:40:56;33.50;78.50
31003;DHT22;23051;-6.372;106.786;2023-06-22T04:43:05;33.60;78.40
31003;DHT22;23051;-6.372;106.786;2023-06-22T04:45:10;33.70;78.30
31003;DHT22;23051;-6.372;106.786;2023-06-22T04:47:14;33.70;78.00
31003;DHT22;23051;-6.372;106.786;2023-06-22T04:49:18;33.70;78.00
31003;DHT22;23051;-6.372;106.786;2023-06-22T04:51:29;33.80;78.00
31003;DHT22;23051;-6.372;106.786;2023-06-22T04:53:31;33.80;78.70
31003;DHT22;23051;-6.372;106.786;2023-06-22T04:55:36;33.90;77.80
31003;DHT22;23051;-6.372;106.786;2023-06-22T04:57:44;34.00;77.70
31003;DHT22;23051;-6.372;106.786;2023-06-22T04:59:49;34.00;77.60
31003;DHT22;23051;-6.372;106.786;2023-06-22T05:01:58;34.10;77.50
31003;DHT22;23051;-6.372;106.786;2023-06-22T05:04:00;34.10;77.40
31003;DHT22;23051;-6.372;106.786;2023-06-22T05:06:03;34.20;77.30
31003;DHT22;23051;-6.372;106.786;2023-06-22T05:08:08;34.30;77.20
31003;DHT22;23051;-6.372;106.786;2023-06-22T05:10:11;34.30;77.00
31003;DHT22;23051;-6.372;106.786;2023-06-22T05:12:15;34.40;77.00
31003;DHT22;23051;-6.372;106.786;2023-06-22T05:14:19;34.40;77.00
31003;DHT22;23051;-6.372;106.786;2023-06-22T05:16:21;34.40;76.90
31003;DHT22;23051;-6.372;106.786;2023-06-22T05:18:26;34.40;76.90
31003;DHT22;23051;-6.372;106.786;2023-06-22T05:20:27;34.50;77.60
31003;DHT22;23051;-6.372;106.786;2023-06-22T05:22:29;34.60;76.60
31003;DHT22;23051;-6.372;106.786;2023-06-22T05:24:31;34.60;76.50
31003;DHT22;23051;-6.372;106.786;2023-06-22T05:26:34;34.70;76.40
31003;DHT22;23051;-6.372;106.786;2023-06-22T05:28:38;34.80;76.20
31003;DHT22;23051;-6.372;106.786;2023-06-22T05:30:42;34.90;76.10
31003;DHT22;23051;-6.372;106.786;2023-06-22T05:32:49;35.00;75.80
31003;DHT22;23051;-6.372;106.786;2023-06-22T05:34:53;35.10;75.60
31003;DHT22;23051;-6.372;106.786;2023-06-22T05:36:55;35.20;75.40
31003;DHT22;23051;-6.372;106.786;2023-06-22T05:39:00;35.30;75.20
31003;DHT22;23051;-6.372;106.786;2023-06-22T05:41:15;35.30;75.10
31003;DHT22;23051;-6.372;106.786;2023-06-22T05:43:16;35.30;75.30
31003;DHT22;23051;-6.372;106.786;2023-06-22T05:45:21;35.30;75.30
31003;DHT22;23051;-6.372;106.786;2023-06-22T05:47:28;35.30;75.30
31003;DHT22;23051;-6.372;106.786;2023-06-22T05:49:29;35.30;75.30
31003;DHT22;23051;-6.372;106.786;2023-06-22T05:51:33;35.20;75.40
31003;DHT22;23051;-6.372;106.786;2023-06-22T05:53:34;35.20;75.50
31003;DHT22;23051;-6.372;106.786;2023-06-22T05:55:36;35.20;75.50
31003;DHT22;23051;-6.372;106.786;2023-06-22T05:57:40;35.20;75.50
31003;DHT22;23051;-6.372;106.786;2023-06-22T05:59:42;35.30;75.50
31003;DHT22;23051;-6.372;106.786;2023-06-22T06:01:43;35.30;75.40
31003;DHT22;23051;-6.372;106.786;2023-06-22T06:03:45;35.40;75.20
31003;DHT22;23051;-6.372;106.786;2023-06-22T06:05:49;35.40;75.20
31003;DHT22;23051;-6.372;106.786;2023-06-22T06:07:51;35.40;75.10
31003;DHT22;23051;-6.372;106.786;2023-06-22T06:09:54;35.40;75.10
31003;DHT22;23051;-6.372;106.786;2023-06-22T06:11:56;35.30;75.30
31003;DHT22;23051;-6.372;106.786;2023-06-22T06:13:58;35.30;75.40
31003;DHT22;23051;-6.372;106.786;2023-06-22T06:15:59;35.30;75.40
31003;DHT22;23051;-6.372;106.786;2023-06-22T06:18:02;35.30;75.40
31003;DHT22;23051;-6.372;106.786;2023-06-22T06:20:09;35.40;75.20
31003;DHT22;23051;-6.372;106.786;2023-06-22T06:22:11;35.50;75.00
31003;DHT22;23051;-6.372;106.786;2023-06-22T06:24:15;35.60;74.80
31003;DHT22;23051;-6.372;106.786;2023-06-22T06:26:17;35.70;74.60
31003;DHT22;23051;-6.372;106.786;2023-06-22T06:28:18;35.70;74.40
31003;DHT22;23051;-6.372;106.786;2023-06-22T06:32:37;35.80;74.30
31003;DHT22;23051;-6.372;106.786;2023-06-22T06:34:46;35.80;74.40
31003;DHT22;23051;-6.372;106.786;2023-06-22T06:36:48;35.80;74.30
31003;DHT22;23051;-6.372;106.786;2023-06-22T06:38:49;35.90;74.20
31003;DHT22;23051;-6.372;106.786;2023-06-22T06:40:54;35.90;74.10
31003;DHT22;23051;-6.372;106.786;2023-06-22T06:42:55;35.90;74.10
31003;DHT22;23051;-6.372;106.786;2023-06-22T06:44:57;35.90;74.10
31003;DHT22;23051;-6.372;106.786;2023-06-22T06:47:01;35.80;74.10
31003;DHT22;23051;-6.372;106.786;2023-06-22T06:49:05;35.90;74.10
31003;DHT22;23051;-6.372;106.786;2023-06-22T06:51:10;35.90;73.90
31003;DHT22;23051;-6.372;106.786;2023-06-22T06:53:11;36.00;73.80
31003;DHT22;23051;-6.372;106.786;2023-06-22T06:55:13;36.10;73.80
31003;DHT22;23051;-6.372;106.786;2023-06-22T06:57:14;36.10;73.50
31003;DHT22;23051;-6.372;106.786;2023-06-22T06:59:16;36.20;73.40
31003;DHT22;23051;-6.372;106.786;2023-06-22T07:01:21;36.30;73.30
31003;DHT22;23051;-6.372;106.786;2023-06-22T07:03:25;36.30;73.10
31003;DHT22;23051;-6.372;106.786;2023-06-22T07:05:27;36.40;72.80
31003;DHT22;23051;-6.372;106.786;2023-06-22T07:07:29;36.50;72.70
31003;DHT22;23051;-6.372;106.786;2023-06-22T07:13:36;36.30;73.20
31003;DHT22;23051;-6.372;106.786;2023-06-22T07:15:46;36.10;73.30
31003;DHT22;23051;-6.372;106.786;2023-06-22T07:17:48;36.10;73.50
31003;DHT22;23051;-6.372;106.786;2023-06-22T07:19:52;36.10;73.60
31003;DHT22;23051;-6.372;106.786;2023-06-22T07:21:55;36.10;73.60
31003;DHT22;23051;-6.372;106.786;2023-06-22T07:23:56;36.00;73.80
31003;DHT22;23051;-6.372;106.786;2023-06-22T07:25:58;35.80;73.70
31003;DHT22;23051;-6.372;106.786;2023-06-22T07:28:05;35.80;73.80
31003;DHT22;23051;-6.372;106.786;2023-06-22T07:30:07;35.80;73.90
31003;DHT22;23051;-6.372;106.786;2023-06-22T07:32:11;35.80;73.90
31003;DHT22;23051;-6.372;106.786;2023-06-22T07:34:12;35.80;73.90
31003;DHT22;23051;-6.372;106.786;2023-06-22T07:36:13;35.70;73.90
31003;DHT22;23051;-6.372;106.786;2023-06-22T07:38:17;35.70;74.00
31003;DHT22;23051;-6.372;106.786;2023-06-22T07:40:19;35.80;74.00
31003;DHT22;23051;-6.372;106.786;2023-06-22T07:42:24;35.80;73.70
31003;DHT22;23051;-6.372;106.786;2023-06-22T07:44:29;35.90;73.60
31003;DHT22;23051;-6.372;106.786;2023-06-22T07:46:30;35.80;73.60
31003;DHT22;23051;-6.372;106.786;2023-06-22T07:48:32;35.80;73.80
31003;DHT22;23051;-6.372;106.786;2023-06-22T07:53:14;35.90;73.60
31003;DHT22;23051;-6.372;106.786;2023-06-22T07:55:16;35.90;73.30
31003;DHT22;23051;-6.372;106.786;2023-06-22T07:57:18;36.00;73.20
31003;DHT22;23051;-6.372;106.786;2023-06-22T07:59:19;36.10;73.00
31003;DHT22;23051;-6.372;106.786;2023-06-22T08:01:24;36.10;72.90
31003;DHT22;23051;-6.372;106.786;2023-06-22T08:03:26;36.10;72.80
31003;DHT22;23051;-6.372;106.786;2023-06-22T08:05:30;36.10;72.80
31003;DHT22;23051;-6.372;106.786;2023-06-22T08:07:35;36.10;73.70
31003;DHT22;23051;-6.372;106.786;2023-06-22T08:09:48;36.00;73.10
31003;DHT22;23051;-6.372;106.786;2023-06-22T08:11:52;35.80;73.30
31003;DHT22;23051;-6.372;106.786;2023-06-22T08:13:56;35.70;73.50
31003;DHT22;23051;-6.372;106.786;2023-06-22T08:15:59;35.70;73.60
31003;DHT22;23051;-6.372;106.786;2023-06-22T08:18:00;35.60;73.60
31003;DHT22;23051;-6.372;106.786;2023-06-22T08:20:07;35.60;73.80
31003;DHT22;23051;-6.372;106.786;2023-06-22T08:22:20;35.50;73.90
31003;DHT22;23051;-6.372;106.786;2023-06-22T08:24:24;35.40;73.90
31003;DHT22;23051;-6.372;106.786;2023-06-22T08:26:26;35.50;73.90
31003;DHT22;23051;-6.372;106.786;2023-06-22T08:28:27;35.50;73.80
31003;DHT22;23051;-6.372;106.786;2023-06-22T08:30:31;35.60;73.70
31003;DHT22;23051;-6.372;106.786;2023-06-22T08:32:33;35.60;73.50
31003;DHT22;23051;-6.372;106.786;2023-06-22T08:34:34;35.70;73.50
31003;DHT22;23051;-6.372;106.786;2023-06-22T08:36:38;35.60;73.50
31003;DHT22;23051;-6.372;106.786;2023-06-22T08:38:45;35.50;74.50
31003;DHT22;23051;-6.372;106.786;2023-06-22T08:40:51;35.30;73.90
31003;DHT22;23051;-6.372;106.786;2023-06-22T08:42:52;35.30;74.20
31003;DHT22;23051;-6.372;106.786;2023-06-22T08:44:55;35.20;74.20
31003;DHT22;23051;-6.372;106.786;2023-06-22T08:46:57;35.20;75.10
31003;DHT22;23051;-6.372;106.786;2023-06-22T08:49:00;35.20;74.20
31003;DHT22;23051;-6.372;106.786;2023-06-22T08:51:02;35.20;74.20
31003;DHT22;23051;-6.372;106.786;2023-06-22T08:53:04;35.00;74.40
31003;DHT22;23051;-6.372;106.786;2023-06-22T08:55:12;35.00;75.50
31003;DHT22;23051;-6.372;106.786;2023-06-22T08:57:15;34.90;74.90
31003;DHT22;23051;-6.372;106.786;2023-06-22T08:59:17;34.80;75.00
31003;DHT22;23051;-6.372;106.786;2023-06-22T09:01:18;34.70;75.10
31003;DHT22;23051;-6.372;106.786;2023-06-22T09:03:20;34.70;75.30
31003;DHT22;23051;-6.372;106.786;2023-06-22T09:05:21;34.60;75.20
31003;DHT22;23051;-6.372;106.786;2023-06-22T09:07:28;34.60;75.30
31003;DHT22;23051;-6.372;106.786;2023-06-22T09:09:32;34.50;75.30
31003;DHT22;23051;-6.372;106.786;2023-06-22T09:11:34;34.50;75.40
31003;DHT22;23051;-6.372;106.786;2023-06-22T09:13:40;34.50;75.40
31003;DHT22;23051;-6.372;106.786;2023-06-22T09:15:42;34.40;75.50
31003;DHT22;23051;-6.372;106.786;2023-06-22T09:17:43;34.40;75.60
31003;DHT22;23051;-6.372;106.786;2023-06-22T09:21:51;34.40;75.60
31003;DHT22;23051;-6.372;106.786;2023-06-22T09:23:55;34.40;75.60
31003;DHT22;23051;-6.372;106.786;2023-06-22T09:26:00;34.30;75.40
31003;DHT22;23051;-6.372;106.786;2023-06-22T09:28:02;34.30;75.50
31003;DHT22;23051;-6.372;106.786;2023-06-22T09:30:04;34.30;75.50
31003;DHT22;23051;-6.372;106.786;2023-06-22T09:32:09;34.30;75.40
31003;DHT22;23051;-6.372;106.786;2023-06-22T09:34:10;34.30;75.50
31003;DHT22;23051;-6.372;106.786;2023-06-22T09:36:22;34.20;75.60
31003;DHT22;23051;-6.372;106.786;2023-06-22T09:38:26;34.10;75.70
31003;DHT22;23051;-6.372;106.786;2023-06-22T09:40:28;34.00;75.80
31003;DHT22;23051;-6.372;106.786;2023-06-22T09:42:29;33.90;76.10
31003;DHT22;23051;-6.372;106.786;2023-06-22T09:44:31;33.90;76.30
31003;DHT22;23051;-6.372;106.786;2023-06-22T09:46:32;33.80;76.40
31003;DHT22;23051;-6.372;106.786;2023-06-22T09:50:37;33.60;76.80
31003;DHT22;23051;-6.372;106.786;2023-06-22T09:52:45;33.50;77.00
31003;DHT22;23051;-6.372;106.786;2023-06-22T09:54:57;33.40;77.30
31003;DHT22;23051;-6.372;106.786;2023-06-22T09:57:02;33.20;77.50
31003;DHT22;23051;-6.372;106.786;2023-06-22T09:59:06;33.20;77.70
31003;DHT22;23051;-6.372;106.786;2023-06-22T10:01:08;33.00;77.80
31003;DHT22;23051;-6.372;106.786;2023-06-22T10:03:10;33.00;78.10
31003;DHT22;23051;-6.372;106.786;2023-06-22T10:05:15;32.80;78.20
31003;DHT22;23051;-6.372;106.786;2023-06-22T10:07:20;32.80;78.30
31003;DHT22;23051;-6.372;106.786;2023-06-22T10:09:25;32.70;78.50
31003;DHT22;23051;-6.372;106.786;2023-06-22T10:11:26;32.60;78.60
31003;DHT22;23051;-6.372;106.786;2023-06-22T10:13:39;32.50;78.80
31003;DHT22;23051;-6.372;106.786;2023-06-22T10:15:52;32.40;79.00
31003;DHT22;23051;-6.372;106.786;2023-06-22T10:18:04;32.40;79.00
31003;DHT22;23051;-6.372;106.786;2023-06-22T10:20:09;32.40;79.00
31003;DHT22;23051;-6.372;106.786;2023-06-22T10:22:22;32.40;78.90
31003;DHT22;23051;-6.372;106.786;2023-06-22T10:24:35;32.30;78.80
31003;DHT22;23051;-6.372;106.786;2023-06-22T10:26:47;32.30;78.80
31003;DHT22;23051;-6.372;106.786;2023-06-22T10:28:55;32.30;78.90
31003;DHT22;23051;-6.372;106.786;2023-06-22T10:30:57;32.20;79.00
31003;DHT22;23051;-6.372;106.786;2023-06-22T10:33:01;32.20;79.10
31003;DHT22;23051;-6.372;106.786;2023-06-22T10:35:03;32.20;79.10
31003;DHT22;23051;-6.372;106.786;2023-06-22T10:37:07;32.10;79.00
31003;DHT22;23051;-6.372;106.786;2023-06-22T10:39:08;32.10;79.10
31003;DHT22;23051;-6.372;106.786;2023-06-22T10:41:12;32.00;79.10
31003;DHT22;23051;-6.372;106.786;2023-06-22T10:43:16;32.00;79.20
31003;DHT22;23051;-6.372;106.786;2023-06-22T10:45:18;31.90;79.20
31003;DHT22;23051;-6.372;106.786;2023-06-22T10:47:20;31.90;79.30
31003;DHT22;23051;-6.372;106.786;2023-06-22T10:49:21;31.80;79.30
31003;DHT22;23051;-6.372;106.786;2023-06-22T10:51:23;31.80;79.30
31003;DHT22;23051;-6.372;106.786;2023-06-22T10:53:24;32.00;79.20
31003;DHT22;23051;-6.372;106.786;2023-06-22T10:55:26;32.10;78.80
31003;DHT22;23051;-6.372;106.786;2023-06-22T10:57:27;32.20;78.50
31003;DHT22;23051;-6.372;106.786;2023-06-22T10:59:29;32.20;78.20
31003;DHT22;23051;-6.372;106.786;2023-06-22T11:01:31;32.30;78.00
31003;DHT22;23051;-6.372;106.786;2023-06-22T11:03:36;32.30;77.80
31003;DHT22;23051;-6.372;106.786;2023-06-22T11:05:41;32.30;77.80
31003;DHT22;23051;-6.372;106.786;2023-06-22T11:07:43;32.40;77.80
31003;DHT22;23051;-6.372;106.786;2023-06-22T11:09:49;32.40;77.70
31003;DHT22;23051;-6.372;106.786;2023-06-22T11:11:51;32.30;77.60
31003;DHT22;23051;-6.372;106.786;2023-06-22T11:13:55;32.30;77.60
31003;DHT22;23051;-6.372;106.786;2023-06-22T11:16:01;32.40;77.70
31003;DHT22;23051;-6.372;106.786;2023-06-22T11:18:03;32.40;77.70
31003;DHT22;23051;-6.372;106.786;2023-06-22T11:20:07;32.40;77.70
31003;DHT22;23051;-6.372;106.786;2023-06-22T11:22:12;32.40;77.60
31003;DHT22;23051;-6.372;106.786;2023-06-22T11:24:14;32.40;77.40
31003;DHT22;23051;-6.372;106.786;2023-06-22T11:26:20;32.50;77.10
31003;DHT22;23051;-6.372;106.786;2023-06-22T11:30:25;32.60;76.70
31003;DHT22;23051;-6.372;106.786;2023-06-22T11:32:30;32.70;76.70
31003;DHT22;23051;-6.372;106.786;2023-06-22T11:34:32;32.60;76.70
31003;DHT22;23051;-6.372;106.786;2023-06-22T11:36:37;32.60;76.60
31003;DHT22;23051;-6.372;106.786;2023-06-22T11:38:47;32.60;76.80
31003;DHT22;23051;-6.372;106.786;2023-06-22T11:40:52;32.60;76.80
31003;DHT22;23051;-6.372;106.786;2023-06-22T11:42:57;32.50;77.00
31003;DHT22;23051;-6.372;106.786;2023-06-22T11:45:04;32.30;77.30
31003;DHT22;23051;-6.372;106.786;2023-06-22T11:47:11;32.10;77.70
31003;DHT22;23051;-6.372;106.786;2023-06-22T11:49:19;32.00;78.00
31003;DHT22;23051;-6.372;106.786;2023-06-22T11:51:22;31.90;78.20
31003;DHT22;23051;-6.372;106.786;2023-06-22T11:53:29;31.80;78.30
31003;DHT22;23051;-6.372;106.786;2023-06-22T11:55:31;31.80;78.40
31003;DHT22;23051;-6.372;106.786;2023-06-22T11:57:35;31.80;78.50
31003;DHT22;23051;-6.372;106.786;2023-06-22T11:59:38;31.70;78.50
31003;DHT22;23051;-6.372;106.786;2023-06-22T12:01:42;31.70;78.50
31003;DHT22;23051;-6.372;106.786;2023-06-22T12:03:46;31.80;78.60
31003;DHT22;23051;-6.372;106.786;2023-06-22T12:05:50;31.70;78.50
31003;DHT22;23051;-6.372;106.786;2023-06-22T12:07:54;31.70;78.40
31003;DHT22;23051;-6.372;106.786;2023-06-22T12:09:56;31.70;78.40
31003;DHT22;23051;-6.372;106.786;2023-06-22T12:12:01;31.70;78.40
31003;DHT22;23051;-6.372;106.786;2023-06-22T12:14:06;31.70;78.40
31003;DHT22;23051;-6.372;106.786;2023-06-22T12:16:09;31.70;78.50
31003;DHT22;23051;-6.372;106.786;2023-06-22T12:18:11;31.80;78.20
31003;DHT22;23051;-6.372;106.786;2023-06-22T12:20:16;31.90;77.80
31003;DHT22;23051;-6.372;106.786;2023-06-22T12:22:18;32.10;77.60
31003;DHT22;23051;-6.372;106.786;2023-06-22T12:24:21;32.20;77.20
31003;DHT22;23051;-6.372;106.786;2023-06-22T12:26:24;32.30;76.90
31003;DHT22;23051;-6.372;106.786;2023-06-22T12:28:27;32.40;76.70
31003;DHT22;23051;-6.372;106.786;2023-06-22T12:30:33;32.50;76.50
31003;DHT22;23051;-6.372;106.786;2023-06-22T12:32:36;32.50;76.30
31003;DHT22;23051;-6.372;106.786;2023-06-22T12:34:39;32.60;76.20
31003;DHT22;23051;-6.372;106.786;2023-06-22T12:36:46;32.60;76.00
31003;DHT22;23051;-6.372;106.786;2023-06-22T12:41:09;32.80;75.60
31003;DHT22;23051;-6.372;106.786;2023-06-22T12:43:19;32.90;75.50
31003;DHT22;23051;-6.372;106.786;2023-06-22T12:45:22;32.90;75.30
31003;DHT22;23051;-6.372;106.786;2023-06-22T12:47:28;32.90;75.30
31003;DHT22;23051;-6.372;106.786;2023-06-22T12:49:36;33.00;75.30
31003;DHT22;23051;-6.372;106.786;2023-06-22T12:51:44;33.00;75.20
31003;DHT22;23051;-6.372;106.786;2023-06-22T12:53:50;33.00;75.20
31003;DHT22;23051;-6.372;106.786;2023-06-22T12:55:56;33.00;75.20
31003;DHT22;23051;-6.372;106.786;2023-06-22T12:57:58;32.90;75.10
31003;DHT22;23051;-6.372;106.786;2023-06-22T13:00:00;33.00;75.10
31003;DHT22;23051;-6.372;106.786;2023-06-22T13:02:11;33.00;75.10
31003;DHT22;23051;-6.372;106.786;2023-06-22T13:04:15;33.00;75.80
31003;DHT22;23051;-6.372;106.786;2023-06-22T13:06:24;33.00;74.90
31003;DHT22;23051;-6.372;106.786;2023-06-22T13:08:30;33.00;74.90
31003;DHT22;23051;-6.372;106.786;2023-06-22T13:10:38;33.00;74.80